Gifford, IL (61847)

12:56 PM CDT on March 24, 2017 (GMT -0500)
Flatville | | Change Station

Elev 686 ft 40.24 °N, 88.06 °W | Updated 3 minutes ago

Clear
Clear
75.9 °F
Feels Like 78 °F
N
22.0
Wind Variable Wind from North
Gusts 33.0 mph

Today
High -- | Low -- °F
--% Chance of Precip.
Yesterday
High -- | Low -- °F
Precip. -- in
Pressure 30.01 in
Visibility 10.0 miles
Clouds Clear
Heat Index 78 °F
Dew Point 59 °F
Humidity 57%
Rainfall 0.00 in
Snow Depth Not available.
6:48 AM 7:08 PM
Waning Crescent, 14% visible
METAR KTIP 241735Z AUTO 21021G29KT 10SM CLR 25/14 A3001 RMK AO2 T02520140
Pressure 30.01 in
Visibility 10.0 miles
Clouds Clear
Heat Index 78 °F
Dew Point 59 °F
Humidity 57%
Rainfall 0.00 in
Snow Depth Not available.
6:48 AM 7:08 PM
Waning Crescent, 14% visible
METAR KTIP 241735Z AUTO 21021G29KT 10SM CLR 25/14 A3001 RMK AO2 T02520140

Get Severe Weather Alerts

Thanks for signing up!

Be on the lookout for a verification email in your inbox.

You'll start receiving the daily forecast at 8 AM.

×

10-Day Weather Forecast

Almanac

Astronomy

Mar. 24, 2017 Rise Set
Actual Time
Civil Twilight
Nautical Twilight
Astronomical Twilight
Moon
Length of Visible Light
Length of Day
Tomorrow will be .
, % of the Moon is Illuminated

Today's Extremes

State Highs State Lows

Community

WunderPhotos

Upload Photos

1,962,540 photos uploaded!

WunderBlog® & News

Nearby

Air Quality

  Air Quality AQ Index Pollutant
Not available.

Snow Depth

Station Depth Elevation

Earthquake Activity

City Distance Mag. Time & Date
Minimum magnitude displayed is 2.5.

Earthquake Activity

City Distance Mag. Time & Date
Minimum magnitude displayed is 2.5.

Coastal Water Temperatures

Place Temperature

Stations

Nearby Weather Stations

Station Location Temp. Windchill Dew Point Humidity Wind Precip. Elev Updated Type
                   

Watches & Warnings

There are currently no watches in effect.